メインページ
METAR-TAF:

METAR-TAF

空港 :

エルマイラ / Corning, ニューヨーク, アメリカ合衆国

緯度: 42-09-23N, 経度: 076-54-10W, 海抜: 291m

現時点の気象観測

当レポートは52分前の03:53(UTC)に作成
西/南西の風 5kt
気温 6°C
湿度 87%
気圧 1015 hPa
視程: 16.1km
高度1200ftの曇り

METAR: KELM 040353Z 24005KT 10SM OVC012 06/04 A2998 RMK AO2 RAB0258E08 SLP157 P0000 T00560044

時間: 00:45 (04:45 UTC)

予報

当レポートは5時間23分前の23:22(UTC)に作成
予報は04日の 00時(UTC)から 04日の 24時(UTC)まで有効
の風 7kt
視程: 8.0km
高度1500ftの曇り
04日の 03時(UTC)から 04日の 05時(UTC)まで一時的に
視程: 3.2km
高度300ftの曇り
小霧雨, 靄
04日の 0500時(UTC)から
変向風 4kt
視程: 3.2km
高度300ftの曇り
小霧雨, 靄
04日の 1600時(UTC)から
の風 kt
視程: 6.4km
高度800ftの千切れ雲あり
04日の 1900時(UTC)から
の風 kt
視程: 10km
高度1700ftの千切れ雲あり

TAF: KELM 032322Z 0400/0424 35007KT 5SM BR OVC015 TEMPO 0403/0405 2SM -DZ BR OVC003 FM040500 VRB04KT 2SM -DZ BR OVC003 FM041600 00000KT 4SM BR BKN008 FM041900 00000KT P6SM BKN017

4,000以上の空港の気象観測と天気予報(METAR報とTAF報)

利用可能な観測所は地図上に黄色い丸と赤い丸で示す。

丸の上にカーソルを重ねると観測所名を参照できる。

次にクリックすると気象観測と天気予報を参照できる。

マップの切り替え:黒色「×」印の緑ボタンをクリックして拡大、「-」印の緑ボタンをクリックして縮小、緑色の三角印をクリックして隣りの地図に切り替え


METAR-TAF: